Aberdeen, United Kingdom

4:54 AM GMT on February 12, 2016 (GMT +0000)
Stoneywood | | Change Station
CLOSE
Current Station
Personal Weather Station
Location: Aberdeen,
Elevation: 200 ft
Nearby Weather Stations

Elev 200 ft 57.19 °N, 2.18 °W | Updated 6 seconds ago

Overcast
Overcast
31.6 °F
Feels Like 32 °F
N
0.0
Wind Variable Wind from East
Gusts 0.0 mph

Today
High -- | Low -- °F
--% Chance of Precip.
Yesterday
High -- | Low -- °F
Precip. -- in
Pressure 29.50 in
Visibility 6.2 miles
Clouds Overcast 3400 ft
Windchill 32 °F
Dew Point 32 °F
Humidity 99%
Rainfall 0.00 in
Snow Depth Not available.
7:46 AM 5:00 PM
Waxing Crescent, 17% visible
METAR EGPD 120450Z AUTO VRB02KT 9999 OVC034/// M02/M03 Q0999
Pressure 29.50 in
Visibility 6.2 miles
Clouds Overcast 3400 ft
Windchill 32 °F
Dew Point 32 °F
Humidity 99%
Rainfall 0.00 in
Snow Depth Not available.
7:46 AM 5:00 PM
Waxing Crescent, 17% visible
METAR EGPD 120450Z AUTO VRB02KT 9999 OVC034/// M02/M03 Q0999

10-Day Weather Forecast

Almanac

Astronomy

Feb. 12, 2016 Rise Set
Actual Time
Civil Twilight
Nautical Twilight
Astronomical Twilight
Moon
Length of Visible Light
Length of Day
Tomorrow will be .
, % of the Moon is Illuminated

Today's Extremes

Country Highs Country Lows

Community

WunderPhotos

Upload Photos

1,892,268 photos uploaded!

WunderBlog® & News

Nearby

Air Quality

  Air Quality AQ Index Pollutant
Not available.

Snow Depth

Station Depth Elevation

Earthquake Activity

City Distance Mag. Time & Date
Minimum magnitude displayed is 2.5.

Coastal Water Temperatures

Place Temperature

Stations

Nearby Weather Stations

Station Location Temp. Windchill Dew Point Humidity Wind Precip. Elev Updated Type